« 定点 富山空港 2013/3/3 sun | トップページ | Good morning ishigaki 2013/3/6 wed »

2013/03/06

速報 ぱいーぐるに逢いに出かけました。

南の島に「ぱいーぐる」なる新しい鳥が現れたそうなぁ。飛び物マニアの小生は、是非この珍鳥を確保に夜を徹してひたすら南西に向かうのだ!

夜行、リムジンとバスと乗り継いで、ついたは大阪湾に浮かぶ関空島。

RJBB 050130Z 31006KT 270V350 7000 FEW025 09/M02 Q1024 NOSIG

2013005_rjbb_a00ja806p

今回も旅のお供は桃

AJP213 RJBB-ROAH JA806P A320-214

ROAH 050400Z 04008KT 360V130 CAVOK 19/04 Q1025 RMK 6SC060 A3029

20130305_ja806p_a01roah

南西の島は遠いのです。ここで乗り継ぎ。

20130305_roah_a02t465719

おー、頭の白い鷲も飛んでるがやー

20130305_roah_a03ja8939

空を飛ぶじんべいざめも登場

20130305_roah_a04ja8674

ゆめジェットに見送られて・・・

ROAH 050630Z 03008KT 340V070 CAVOK 18/06 Q1024 RMK 6SC050 A3024

20130305_ja02an_a05roah

次の鉄の鳥に搭乗

ANA1775 ROAH-ROIG JA02AN B737-781

20130305_ja02an_a06sky

眩しい空を泳いで・・・

ROIG 050700Z 06010KT 9999 FEW045 BKN050 20/10 Q1023

降り立ったは、南ぬ島

20130305_ja02an_a07roig

20130305_roig_a08ja02an

JA02AN 初めてのB737でした

20130305_roig_a09ja8939

おー、じんべえさんが後を追ってきたー!

JTA619 ROAH-ROIG JA8939 B737-446

ROIG 051100Z 06009KT 9999 FEW040 BKN050 19/11 Q1023

20130305_roig_a10ja8939

JTA628 ROIG-ROAH JA8939 B737-446

じんべえさんは鳥目ではないので夜になっても泳いでいます。

さあー、ぱいーぐるを探すぞー!!!

|

« 定点 富山空港 2013/3/3 sun | トップページ | Good morning ishigaki 2013/3/6 wed »

那覇空港」カテゴリの記事

石垣空港」カテゴリの記事

関西国際空港」カテゴリの記事

コメント

コメントを書く



(ウェブ上には掲載しません)


コメントは記事投稿者が公開するまで表示されません。



トラックバック


この記事へのトラックバック一覧です: 速報 ぱいーぐるに逢いに出かけました。:

« 定点 富山空港 2013/3/3 sun | トップページ | Good morning ishigaki 2013/3/6 wed »